createdAt,value
2018-01-19T00:00:52.854Z,2.31
2018-01-19T00:03:20.350Z,2.34
2018-01-19T00:05:47.885Z,2.34
2018-01-19T00:08:15.425Z,2.35
2018-01-19T00:10:42.936Z,2.35
2018-01-19T00:13:10.477Z,2.38
2018-01-19T00:15:37.972Z,2.32
2018-01-19T00:18:05.494Z,2.29
2018-01-19T00:20:33.024Z,2.32
2018-01-19T00:23:00.558Z,2.30
2018-01-19T00:25:28.111Z,2.31
2018-01-19T00:27:55.632Z,2.31
2018-01-19T00:30:23.141Z,2.28
2018-01-19T00:32:50.678Z,2.24
2018-01-19T00:35:18.186Z,2.24
2018-01-19T00:37:45.710Z,2.28
2018-01-19T00:40:13.221Z,2.26
2018-01-19T00:42:40.749Z,2.22
2018-01-19T00:45:08.274Z,2.21
2018-01-19T00:47:35.796Z,2.22
2018-01-19T00:50:03.333Z,2.18
2018-01-19T00:52:30.854Z,2.17
2018-01-19T00:54:58.372Z,2.18
2018-01-19T00:57:25.872Z,2.18
2018-01-19T00:59:53.412Z,2.15
2018-01-19T01:02:20.941Z,2.19
2018-01-19T01:04:48.458Z,2.22
2018-01-19T01:07:15.993Z,2.20
2018-01-19T01:09:43.528Z,2.24
2018-01-19T01:12:11.054Z,2.24
2018-01-19T01:14:38.607Z,2.26
2018-01-19T01:17:06.113Z,2.31
2018-01-19T01:19:33.625Z,2.32
2018-01-19T01:22:01.197Z,2.32
2018-01-19T01:24:28.753Z,2.31
2018-01-19T01:26:56.281Z,2.27
2018-01-19T01:29:23.819Z,2.28
2018-01-19T01:31:51.333Z,2.31
2018-01-19T01:34:18.917Z,2.35
2018-01-19T01:36:46.443Z,2.35
2018-01-19T01:39:13.965Z,2.31
2018-01-19T01:41:41.568Z,2.30
2018-01-19T01:44:09.092Z,2.32
2018-01-19T01:46:36.597Z,2.32
2018-01-19T01:49:11.953Z,2.31
2018-01-19T01:51:39.491Z,2.35
2018-01-19T01:54:07.021Z,2.32
2018-01-19T01:56:34.552Z,2.34
2018-01-19T01:59:02.053Z,2.33
2018-01-19T02:01:29.602Z,2.38
2018-01-19T02:03:57.108Z,2.37
2018-01-19T02:06:24.603Z,2.40
2018-01-19T02:08:52.109Z,2.42
2018-01-19T02:11:19.642Z,2.40
2018-01-19T02:13:47.173Z,2.38
2018-01-19T02:16:14.754Z,2.37
2018-01-19T02:18:42.254Z,2.37
2018-01-19T02:21:09.792Z,2.39
2018-01-19T02:23:37.320Z,2.39
2018-01-19T02:26:04.819Z,2.34
2018-01-19T02:28:32.353Z,2.36
2018-01-19T02:30:59.928Z,2.39
2018-01-19T02:33:27.445Z,2.41
2018-01-19T02:35:54.968Z,2.45
2018-01-19T02:38:22.485Z,2.50
2018-01-19T02:40:49.982Z,2.51
2018-01-19T02:43:17.498Z,2.50
2018-01-19T02:45:45.060Z,2.52
2018-01-19T02:48:12.580Z,2.53
2018-01-19T02:50:40.126Z,2.51
2018-01-19T02:53:07.703Z,2.46
2018-01-19T02:55:35.325Z,2.48
2018-01-19T02:58:02.885Z,2.50
2018-01-19T03:00:30.432Z,2.54
2018-01-19T03:02:57.979Z,2.53
2018-01-19T03:05:25.517Z,2.50
2018-01-19T03:07:53.008Z,2.49
2018-01-19T03:10:20.499Z,2.47
2018-01-19T03:12:48.043Z,2.49
2018-01-19T03:15:15.563Z,2.51
2018-01-19T03:17:43.112Z,2.53
2018-01-19T03:20:10.633Z,2.53
2018-01-19T03:22:38.132Z,2.53
2018-01-19T03:25:05.704Z,2.52
2018-01-19T03:27:33.222Z,2.47
2018-01-19T03:30:00.714Z,2.46
2018-01-19T03:32:28.255Z,2.42
2018-01-19T03:34:55.829Z,2.43
2018-01-19T03:37:23.347Z,2.41
2018-01-19T03:39:50.971Z,2.40
2018-01-19T03:42:18.542Z,2.45
2018-01-19T03:44:46.036Z,2.46
2018-01-19T03:47:13.539Z,2.48
2018-01-19T03:49:41.025Z,2.50
2018-01-19T03:52:08.539Z,2.51
2018-01-19T03:54:36.031Z,2.52
2018-01-19T03:57:03.523Z,2.55
2018-01-19T03:59:31.074Z,2.51
2018-01-19T04:01:58.693Z,2.49
2018-01-19T04:04:26.203Z,2.46
2018-01-19T04:06:53.744Z,2.51
2018-01-19T04:09:21.263Z,2.51
2018-01-19T04:11:48.797Z,2.53
2018-01-19T04:14:16.330Z,2.55
2018-01-19T04:16:43.849Z,2.56
2018-01-19T04:19:11.348Z,2.56
2018-01-19T04:21:38.960Z,2.59
2018-01-19T04:24:06.454Z,2.60
2018-01-19T04:26:33.976Z,2.61
2018-01-19T04:29:01.525Z,2.62
2018-01-19T04:31:29.093Z,2.62
2018-01-19T04:33:56.613Z,2.63
2018-01-19T04:36:24.173Z,2.62
2018-01-19T04:38:51.671Z,2.62
2018-01-19T04:41:19.186Z,2.63
2018-01-19T04:43:46.764Z,2.61
2018-01-19T04:46:14.306Z,2.57
2018-01-19T04:48:41.914Z,2.55
2018-01-19T04:51:09.428Z,2.54
2018-01-19T04:53:37.033Z,2.52
2018-01-19T04:56:04.582Z,2.51
2018-01-19T04:58:32.080Z,2.53
2018-01-19T05:00:59.586Z,2.52
2018-01-19T05:03:27.113Z,2.52
2018-01-19T05:05:54.633Z,2.55
2018-01-19T05:08:22.185Z,2.56
2018-01-19T05:10:49.699Z,2.58
2018-01-19T05:13:17.225Z,2.60
2018-01-19T05:15:44.720Z,2.57
2018-01-19T05:18:12.321Z,2.53
2018-01-19T05:20:39.866Z,2.51
2018-01-19T05:23:07.441Z,2.58
2018-01-19T05:25:34.965Z,2.55
2018-01-19T05:28:02.544Z,2.56
2018-01-19T05:30:30.091Z,2.58
2018-01-19T05:32:57.603Z,2.59
2018-01-19T05:35:25.245Z,2.56
2018-01-19T05:37:53.156Z,2.57
2018-01-19T05:40:20.678Z,2.57
2018-01-19T05:42:48.192Z,2.52
2018-01-19T05:45:15.722Z,2.53
2018-01-19T05:47:43.248Z,2.56
2018-01-19T05:50:10.769Z,2.59
2018-01-19T05:52:38.301Z,2.61
2018-01-19T05:55:06.490Z,2.59
2018-01-19T05:57:34.005Z,2.60
2018-01-19T06:00:01.549Z,2.56
2018-01-19T06:02:29.093Z,2.55
2018-01-19T06:04:56.876Z,2.49
2018-01-19T06:07:24.409Z,2.54
2018-01-19T06:09:52.029Z,2.56
2018-01-19T06:12:19.569Z,2.58
2018-01-19T06:14:47.091Z,2.51
2018-01-19T06:17:14.593Z,2.55
2018-01-19T06:19:42.132Z,2.52
2018-01-19T06:22:09.621Z,2.51
2018-01-19T06:24:37.152Z,2.52
2018-01-19T06:27:04.644Z,2.51
2018-01-19T06:29:32.176Z,2.50
2018-01-19T06:31:59.926Z,2.51
2018-01-19T06:34:27.446Z,2.47
2018-01-19T06:36:54.953Z,2.48
2018-01-19T06:39:22.489Z,2.51
2018-01-19T06:41:50.013Z,2.43
2018-01-19T06:44:17.550Z,2.38
2018-01-19T06:46:45.177Z,2.38
2018-01-19T06:49:12.721Z,2.40
2018-01-19T06:51:40.265Z,2.43
2018-01-19T06:54:07.858Z,2.47
2018-01-19T06:56:35.398Z,2.48
2018-01-19T06:59:02.892Z,2.48
2018-01-19T07:01:30.416Z,2.50
2018-01-19T07:03:57.974Z,2.49
2018-01-19T07:06:25.471Z,2.49
2018-01-19T07:08:52.965Z,2.43
2018-01-19T07:11:20.517Z,2.41
2018-01-19T07:13:48.018Z,2.41
2018-01-19T07:16:15.540Z,2.37
2018-01-19T07:18:43.305Z,2.35
2018-01-19T07:21:10.803Z,2.37
2018-01-19T07:23:38.338Z,2.41
2018-01-19T07:26:05.928Z,2.48
2018-01-19T07:28:33.458Z,2.53
2018-01-19T07:31:00.967Z,2.53
2018-01-19T07:33:28.513Z,2.53
2018-01-19T07:35:56.029Z,2.51
2018-01-19T07:38:23.548Z,2.52
2018-01-19T07:40:51.086Z,2.55
2018-01-19T07:43:18.625Z,2.55
2018-01-19T07:45:46.151Z,2.60
2018-01-19T07:48:13.735Z,2.59
2018-01-19T07:50:41.238Z,2.62
2018-01-19T07:53:08.761Z,2.63
2018-01-19T07:55:36.302Z,2.68
2018-01-19T07:58:03.833Z,2.73
2018-01-19T08:00:31.435Z,2.70
2018-01-19T08:02:59.008Z,2.71
2018-01-19T08:05:26.529Z,2.74
2018-01-19T08:07:54.066Z,2.75
2018-01-19T08:10:21.630Z,2.78
2018-01-19T08:12:49.205Z,2.84
2018-01-19T08:15:16.732Z,2.91
2018-01-19T08:17:44.267Z,2.98
2018-01-19T08:20:11.790Z,2.94
2018-01-19T08:22:39.325Z,2.96
2018-01-19T08:25:06.814Z,2.97
2018-01-19T08:27:34.357Z,3.03
2018-01-19T08:30:01.905Z,3.10
2018-01-19T08:32:29.412Z,3.11
2018-01-19T08:34:56.928Z,3.12
2018-01-19T08:37:24.528Z,3.16
2018-01-19T08:39:52.034Z,3.18
2018-01-19T08:42:19.562Z,3.15
2018-01-19T08:44:47.132Z,3.17
2018-01-19T08:47:14.654Z,3.19
2018-01-19T08:49:42.222Z,3.24
2018-01-19T08:52:09.772Z,3.25
2018-01-19T08:54:37.332Z,3.26
2018-01-19T08:57:04.877Z,3.26
2018-01-19T08:59:32.437Z,3.29
2018-01-19T09:02:00.052Z,3.30
2018-01-19T09:04:27.553Z,3.26
2018-01-19T09:06:55.155Z,3.23
2018-01-19T09:09:22.693Z,3.23
2018-01-19T09:11:50.224Z,3.25
2018-01-19T09:14:17.728Z,3.23
2018-01-19T09:16:45.248Z,3.21
2018-01-19T09:19:12.774Z,3.23
2018-01-19T09:21:40.305Z,3.29
2018-01-19T09:24:07.941Z,3.36
2018-01-19T09:26:35.460Z,3.43
2018-01-19T09:29:03.025Z,3.45
2018-01-19T09:31:30.618Z,3.45
2018-01-19T09:33:58.217Z,3.44
2018-01-19T09:36:25.741Z,3.41
2018-01-19T09:38:53.256Z,3.42
2018-01-19T09:41:20.869Z,3.49
2018-01-19T09:43:48.402Z,3.60
2018-01-19T09:46:15.949Z,3.61
2018-01-19T09:48:43.458Z,3.60
2018-01-19T09:51:11.005Z,3.60
2018-01-19T09:53:38.543Z,3.66
2018-01-19T09:56:06.148Z,3.72
2018-01-19T09:58:33.680Z,3.79
2018-01-19T10:01:01.187Z,3.75
2018-01-19T10:03:28.707Z,3.67
2018-01-19T10:05:56.341Z,3.70
2018-01-19T10:08:23.887Z,3.74
2018-01-19T10:10:51.453Z,3.75
2018-01-19T10:13:19.043Z,3.84
2018-01-19T10:15:46.582Z,3.84
2018-01-19T10:18:14.166Z,3.88
2018-01-19T10:20:41.694Z,3.89
2018-01-19T10:23:09.230Z,3.79
2018-01-19T10:25:36.816Z,3.78
2018-01-19T10:28:04.393Z,3.81
2018-01-19T10:30:31.948Z,3.91
2018-01-19T10:32:59.532Z,4.02
2018-01-19T10:35:27.036Z,3.92
2018-01-19T10:37:54.605Z,3.89
2018-01-19T10:40:22.152Z,3.88
2018-01-19T10:42:49.732Z,3.91
2018-01-19T10:45:17.260Z,3.88
2018-01-19T10:47:44.809Z,3.95
2018-01-19T10:50:12.328Z,3.99
2018-01-19T10:52:39.881Z,4.05
2018-01-19T10:55:07.453Z,4.12
2018-01-19T10:57:34.951Z,4.20
2018-01-19T11:00:02.492Z,4.21
2018-01-19T11:02:30.133Z,4.21
2018-01-19T11:04:57.640Z,4.25
2018-01-19T11:07:25.232Z,4.19
2018-01-19T11:09:52.773Z,4.07
2018-01-19T11:12:20.284Z,4.05
2018-01-19T11:14:47.818Z,4.10
2018-01-19T11:17:15.382Z,4.10
2018-01-19T11:19:42.898Z,4.13
2018-01-19T11:22:10.420Z,4.13
2018-01-19T11:24:38.069Z,4.12
2018-01-19T11:27:05.609Z,4.14
2018-01-19T11:29:33.125Z,4.09
2018-01-19T11:32:00.673Z,4.09
2018-01-19T11:34:28.219Z,4.09
2018-01-19T11:36:55.763Z,4.14
2018-01-19T11:39:23.344Z,4.20
2018-01-19T11:41:50.887Z,4.21
2018-01-19T11:44:18.440Z,4.21
2018-01-19T11:46:46.089Z,4.22
2018-01-19T11:49:13.621Z,4.22
2018-01-19T11:51:41.141Z,4.22
2018-01-19T11:54:08.781Z,4.14
2018-01-19T11:56:36.290Z,4.11
2018-01-19T11:59:03.813Z,4.12
2018-01-19T12:01:31.357Z,4.13
2018-01-19T12:03:58.888Z,4.12
2018-01-19T12:06:26.504Z,4.11
2018-01-19T12:08:54.009Z,4.12
2018-01-19T12:11:21.553Z,4.19
2018-01-19T12:13:49.105Z,4.22
2018-01-19T12:16:16.706Z,4.14
2018-01-19T12:18:44.237Z,4.14
2018-01-19T12:21:12.748Z,4.14
2018-01-19T12:23:40.288Z,4.16
2018-01-19T12:26:07.899Z,4.16
2018-01-19T12:28:35.533Z,4.16
2018-01-19T12:31:03.081Z,4.20
2018-01-19T12:33:30.654Z,4.26
2018-01-19T12:35:58.204Z,4.34
2018-01-19T12:38:25.729Z,4.36
2018-01-19T12:40:53.277Z,4.31
2018-01-19T12:43:20.845Z,4.29
2018-01-19T12:45:48.375Z,4.29
2018-01-19T12:48:15.965Z,4.30
2018-01-19T12:50:43.533Z,4.33
2018-01-19T12:53:11.097Z,4.36
2018-01-19T12:55:38.666Z,4.42
2018-01-19T12:58:06.221Z,4.46
2018-01-19T13:00:33.767Z,4.52
2018-01-19T13:03:01.316Z,4.50
2018-01-19T13:05:28.896Z,4.54
2018-01-19T13:07:56.436Z,4.55
2018-01-19T13:10:23.966Z,4.56
2018-01-19T13:12:51.576Z,4.55
2018-01-19T13:15:19.083Z,4.49
2018-01-19T13:17:46.624Z,4.38
2018-01-19T13:20:14.152Z,4.35
2018-01-19T13:22:41.672Z,4.29
2018-01-19T13:25:09.215Z,4.19
2018-01-19T13:27:36.734Z,4.07
2018-01-19T13:30:04.240Z,3.93
2018-01-19T13:32:31.803Z,3.88
2018-01-19T13:34:59.353Z,3.83
2018-01-19T13:37:26.873Z,3.81
2018-01-19T13:39:54.443Z,3.80
2018-01-19T13:42:21.997Z,3.81
2018-01-19T13:44:49.506Z,3.79
2018-01-19T13:47:17.053Z,3.76
2018-01-19T13:49:44.682Z,3.71
2018-01-19T13:52:12.220Z,3.65
2018-01-19T13:54:39.742Z,3.62
2018-01-19T13:57:07.312Z,3.65
2018-01-19T13:59:34.822Z,3.69
2018-01-19T14:02:02.366Z,3.72
2018-01-19T14:04:29.948Z,3.76
2018-01-19T14:06:57.470Z,3.77
2018-01-19T14:09:25.026Z,3.78
2018-01-19T14:11:52.564Z,3.81
2018-01-19T14:14:20.069Z,3.88
2018-01-19T14:16:47.597Z,3.89
2018-01-19T14:19:15.163Z,3.90
2018-01-19T14:21:42.709Z,3.91
2018-01-19T14:24:10.306Z,3.91
2018-01-19T14:26:37.853Z,3.83
2018-01-19T14:29:05.406Z,3.88
2018-01-19T14:31:32.925Z,3.84
2018-01-19T14:34:00.453Z,3.85
2018-01-19T14:36:28.542Z,3.87
2018-01-19T14:38:56.053Z,3.89
2018-01-19T14:41:23.586Z,3.89
2018-01-19T14:43:51.174Z,3.92
2018-01-19T14:46:18.704Z,3.91
2018-01-19T14:48:46.239Z,3.93
2018-01-19T14:51:13.786Z,3.94
2018-01-19T14:53:41.321Z,3.92
2018-01-19T14:56:08.840Z,3.92
2018-01-19T14:58:36.437Z,3.92
2018-01-19T15:01:03.964Z,3.93
2018-01-19T15:03:31.560Z,3.93
2018-01-19T15:05:59.111Z,3.85
2018-01-19T15:08:26.677Z,3.81
2018-01-19T15:10:54.330Z,3.75
2018-01-19T15:13:21.925Z,3.71
2018-01-19T15:15:49.521Z,3.72
2018-01-19T15:18:17.044Z,3.71
2018-01-19T15:20:44.588Z,3.70
2018-01-19T15:23:12.092Z,3.73
2018-01-19T15:25:39.695Z,3.73
2018-01-19T15:28:07.335Z,3.75
2018-01-19T15:30:34.878Z,3.77
2018-01-19T15:33:02.413Z,3.78
2018-01-19T15:35:29.949Z,3.80
2018-01-19T15:37:57.497Z,3.80
2018-01-19T15:40:25.018Z,3.80
2018-01-19T15:42:52.586Z,3.79
2018-01-19T15:45:20.177Z,3.78
2018-01-19T15:47:47.697Z,3.78
2018-01-19T15:50:15.200Z,3.80
2018-01-19T15:52:42.724Z,3.85
2018-01-19T15:55:10.302Z,3.87
2018-01-19T15:57:37.853Z,3.86
2018-01-19T16:00:05.401Z,3.88
2018-01-19T16:02:32.918Z,3.90
2018-01-19T16:05:00.465Z,3.89
2018-01-19T16:07:28.009Z,3.91
2018-01-19T16:09:55.534Z,3.93
2018-01-19T16:12:23.103Z,3.90
2018-01-19T16:14:50.658Z,3.93
2018-01-19T16:17:18.186Z,3.93
2018-01-19T16:19:45.718Z,3.94
2018-01-19T16:22:13.360Z,3.95
2018-01-19T16:24:40.866Z,3.91
2018-01-19T16:27:08.397Z,3.96
2018-01-19T16:29:36.035Z,3.97
2018-01-19T16:32:03.584Z,3.93
2018-01-19T16:34:31.122Z,3.90
2018-01-19T16:36:58.668Z,3.85
2018-01-19T16:39:27.057Z,3.76
2018-01-19T16:41:54.570Z,3.70
2018-01-19T16:44:22.107Z,3.65
2018-01-19T16:46:49.656Z,3.67
2018-01-19T16:49:17.188Z,3.69
2018-01-19T16:51:44.748Z,3.50
2018-01-19T16:54:12.282Z,3.36
2018-01-19T16:56:39.816Z,3.27
2018-01-19T16:59:07.332Z,3.20
2018-01-19T17:01:34.906Z,3.20
2018-01-19T17:04:02.467Z,3.16
2018-01-19T17:06:30.027Z,3.16
2018-01-19T17:08:57.590Z,3.18
2018-01-19T17:11:25.134Z,3.21
2018-01-19T17:13:52.778Z,3.24
2018-01-19T17:16:20.341Z,3.24
2018-01-19T17:18:47.916Z,3.27
2018-01-19T17:21:15.457Z,3.30
2018-01-19T17:23:43.003Z,3.27
2018-01-19T17:26:10.542Z,3.28
2018-01-19T17:28:38.089Z,3.28
2018-01-19T17:31:05.590Z,3.31
2018-01-19T17:33:33.127Z,3.31
2018-01-19T17:36:00.741Z,3.33
2018-01-19T17:38:28.316Z,3.31
2018-01-19T17:40:55.872Z,3.30
2018-01-19T17:43:23.408Z,3.31
2018-01-19T17:45:50.921Z,3.31
2018-01-19T17:48:18.468Z,3.32
2018-01-19T17:50:46.015Z,3.32
2018-01-19T17:53:13.555Z,3.31
2018-01-19T17:55:41.142Z,3.35
2018-01-19T17:58:08.777Z,3.27
2018-01-19T18:00:36.301Z,3.21
2018-01-19T18:03:03.843Z,3.34
2018-01-19T18:05:31.355Z,3.35
2018-01-19T18:07:58.882Z,3.46
2018-01-19T18:10:26.448Z,3.52
2018-01-19T18:12:53.963Z,3.36
2018-01-19T18:15:21.490Z,3.09
2018-01-19T18:17:49.064Z,2.87
2018-01-19T18:20:16.729Z,2.69
2018-01-19T18:22:44.243Z,2.54
2018-01-19T18:25:11.761Z,2.36
2018-01-19T18:27:39.285Z,2.15
2018-01-19T18:30:06.811Z,2.09
2018-01-19T18:32:34.399Z,2.06
2018-01-19T18:35:01.948Z,2.05
2018-01-19T18:37:29.486Z,2.04
2018-01-19T18:39:57.036Z,2.07
2018-01-19T18:42:24.644Z,2.06
2018-01-19T18:44:52.173Z,2.11
2018-01-19T18:47:19.707Z,2.11
2018-01-19T18:49:47.217Z,2.13
2018-01-19T18:52:14.767Z,2.17
2018-01-19T18:54:42.346Z,2.19
2018-01-19T18:57:09.868Z,2.21
2018-01-19T18:59:37.390Z,2.22
2018-01-19T19:02:04.942Z,2.23
2018-01-19T19:04:32.492Z,2.27
2018-01-19T19:07:00.029Z,2.28
2018-01-19T19:09:27.589Z,2.30
2018-01-19T19:11:55.172Z,2.33
2018-01-19T19:14:22.712Z,2.34
2018-01-19T19:16:50.260Z,2.32
2018-01-19T19:19:17.790Z,2.31
2018-01-19T19:21:45.301Z,2.36
2018-01-19T19:24:12.858Z,2.38
2018-01-19T19:26:40.397Z,2.43
2018-01-19T19:29:07.932Z,2.46
2018-01-19T19:31:35.593Z,2.48
2018-01-19T19:34:03.286Z,2.44
2018-01-19T19:36:30.826Z,2.45
2018-01-19T19:38:58.410Z,2.45
2018-01-19T19:41:25.945Z,2.43
2018-01-19T19:43:53.473Z,2.42
2018-01-19T19:46:21.030Z,2.39
2018-01-19T19:48:48.553Z,2.38
2018-01-19T19:51:16.103Z,2.34
2018-01-19T19:53:43.650Z,2.36
2018-01-19T19:56:12.009Z,2.40
2018-01-19T19:58:39.515Z,2.43
2018-01-19T20:01:07.060Z,2.49
2018-01-19T20:03:34.610Z,2.50
2018-01-19T20:06:02.192Z,2.50
2018-01-19T20:08:29.736Z,2.50
2018-01-19T20:10:57.314Z,2.50
2018-01-19T20:13:24.868Z,2.52
2018-01-19T20:15:52.402Z,2.53
2018-01-19T20:18:19.917Z,2.52
2018-01-19T20:20:47.422Z,2.56
2018-01-19T20:23:14.967Z,2.58
2018-01-19T20:25:42.489Z,2.57
2018-01-19T20:28:10.021Z,2.55
2018-01-19T20:30:37.585Z,2.55
2018-01-19T20:33:05.115Z,2.53
2018-01-19T20:35:32.667Z,2.57
2018-01-19T20:38:00.241Z,2.61
2018-01-19T20:40:27.799Z,2.68
2018-01-19T20:42:55.349Z,2.64
2018-01-19T20:45:22.918Z,2.58
2018-01-19T20:47:50.441Z,2.54
2018-01-19T20:50:17.988Z,2.54
2018-01-19T20:52:45.513Z,2.52
2018-01-19T20:55:13.041Z,2.61
2018-01-19T20:57:40.612Z,2.59
2018-01-19T21:00:08.125Z,2.63
2018-01-19T21:02:35.658Z,2.64
2018-01-19T21:05:03.285Z,2.64
2018-01-19T21:07:30.814Z,2.60
2018-01-19T21:09:58.519Z,2.53
2018-01-19T21:12:26.034Z,2.51
2018-01-19T21:14:53.648Z,2.49
2018-01-19T21:17:21.175Z,2.47
2018-01-19T21:19:48.702Z,2.49
2018-01-19T21:22:16.226Z,2.48
2018-01-19T21:24:43.753Z,2.50
2018-01-19T21:27:11.294Z,2.50
2018-01-19T21:29:38.860Z,2.52
2018-01-19T21:32:06.373Z,2.51
2018-01-19T21:34:33.920Z,2.53
2018-01-19T21:37:01.467Z,2.60
2018-01-19T21:39:28.987Z,2.59
2018-01-19T21:41:56.535Z,2.51
2018-01-19T21:44:24.079Z,2.48
2018-01-19T21:46:51.726Z,2.47
2018-01-19T21:49:19.273Z,2.48
2018-01-19T21:51:46.780Z,2.49
2018-01-19T21:54:14.401Z,2.52
2018-01-19T21:56:41.939Z,2.54
2018-01-19T21:59:09.449Z,2.56
2018-01-19T22:01:37.005Z,2.51
2018-01-19T22:04:04.574Z,2.53
2018-01-19T22:06:32.199Z,2.53
2018-01-19T22:08:59.901Z,2.50
2018-01-19T22:11:27.457Z,2.39
2018-01-19T22:13:55.002Z,2.32
2018-01-19T22:16:22.734Z,2.29
2018-01-19T22:18:50.264Z,2.24
2018-01-19T22:21:17.797Z,2.18
2018-01-19T22:23:45.414Z,2.16
2018-01-19T22:26:12.965Z,2.06
2018-01-19T22:28:40.496Z,2.00
2018-01-19T22:31:08.039Z,2.00
2018-01-19T22:33:35.563Z,2.02
2018-01-19T22:36:03.198Z,1.97
2018-01-19T22:38:30.743Z,1.87
2018-01-19T22:40:58.316Z,1.80
2018-01-19T22:43:25.897Z,1.84
2018-01-19T22:45:53.441Z,1.84
2018-01-19T22:48:21.017Z,1.83
2018-01-19T22:50:48.547Z,1.76
2018-01-19T22:53:16.080Z,1.68
2018-01-19T22:55:43.691Z,1.63
2018-01-19T22:58:11.226Z,1.58
2018-01-19T23:00:38.752Z,1.52
2018-01-19T23:03:06.361Z,1.52
2018-01-19T23:05:33.907Z,1.56
2018-01-19T23:08:01.424Z,1.64
2018-01-19T23:10:29.023Z,1.56
2018-01-19T23:12:56.555Z,1.55
2018-01-19T23:15:24.109Z,1.63
2018-01-19T23:17:51.619Z,1.77
2018-01-19T23:20:19.157Z,1.79
2018-01-19T23:22:46.688Z,1.84
2018-01-19T23:25:14.256Z,1.85
2018-01-19T23:27:41.777Z,1.82
2018-01-19T23:30:09.313Z,1.78
2018-01-19T23:32:36.885Z,1.84
2018-01-19T23:35:04.432Z,1.91
2018-01-19T23:37:31.995Z,1.91
2018-01-19T23:39:59.553Z,1.93
2018-01-19T23:42:27.093Z,1.85
2018-01-19T23:44:54.621Z,1.82
2018-01-19T23:47:22.181Z,1.79
2018-01-19T23:49:49.713Z,1.81
2018-01-19T23:52:17.241Z,1.83
2018-01-19T23:54:44.767Z,1.83
2018-01-19T23:57:15.462Z,1.81
2018-01-19T23:59:43.000Z,1.79
